Time;durP1;ratioP1;P1;durP2;ratioP2;P2;SDS_P1;SDS_P2;PMS_P1;PMS_P2;Temp;Humidity;BMP_temperature;BMP_pressure;BME280_temperature;BME280_humidity;BME280_pressure;Samples;Min_cycle;Max_cycle;Signal;HPM_P1;HPM_P2
2023/05/13 00:00:00;;;;;;;;;;;15.10;94.70;;;15.45;59.63;98671.41;5062648;27;108688;-80
2023/05/13 00:02:30;;;;;;;;;;;15.10;94.70;;;15.48;59.69;98663.50;5047612;27;107871;-82
2023/05/13 00:04:56;;;;;;;;;;;15.20;94.70;;;15.46;59.73;98659.09;5070578;27;123137;-82
2023/05/13 00:07:22;;;;;;;;;;;15.20;94.70;;;15.45;59.71;98662.25;5062759;27;124108;-85
2023/05/13 00:09:49;;;;;;;;;;;15.20;94.70;;;15.46;59.70;98670.22;5076591;27;108754;-85
2023/05/13 00:12:18;;;;;;;;;;;15.20;94.70;;;15.48;59.56;98661.53;5066205;27;108516;-85
2023/05/13 00:14:45;;;;;;;;;;;15.20;94.70;;;15.47;59.62;98657.09;5067526;27;123281;-85
2023/05/13 00:17:11;;;;;;;;;;;15.20;94.70;;;15.48;59.56;98658.75;5063624;27;124706;-85
2023/05/13 00:19:43;;;;;;;;;;;15.20;94.70;;;15.50;59.53;98661.19;5068571;27;108335;-85
2023/05/13 00:22:09;;;;;;;;;;;15.20;94.60;;;15.49;59.58;98654.00;5079016;27;108610;-85
2023/05/13 00:24:36;;;;;;;;;;;15.20;94.60;;;15.50;59.62;98659.22;5092482;27;124226;-88
2023/05/13 00:27:05;;;;;;;;;;;15.20;94.60;;;15.50;59.53;98661.19;5092172;27;124096;-85
2023/05/13 00:29:31;;;;;;;;;;;15.20;94.60;;;15.49;59.71;98657.59;5074740;27;110378;-85
2023/05/13 00:31:58;;;;;;;;;;;15.20;94.60;;;15.51;59.46;98657.25;5083810;27;109500;-84
2023/05/13 00:34:24;;;;;;;;;;;15.20;94.60;;;15.50;59.56;98661.19;5082752;27;123895;-83
2023/05/13 00:36:53;;;;;;;;;;;15.20;94.60;;;15.51;59.48;98654.47;5093307;27;124256;-85
2023/05/13 00:39:21;;;;;;;;;;;15.20;94.60;;;15.53;59.28;98654.91;5091221;27;109231;-84
2023/05/13 00:41:48;;;;;;;;;;;15.20;94.60;;;15.54;59.22;98653.75;5085881;27;108854;-85
2023/05/13 00:44:17;;;;;;;;;;;15.20;94.60;;;15.52;59.10;98658.84;5086137;27;125271;-85
2023/05/13 00:46:45;;;;;;;;;;;15.20;94.50;;;15.47;59.28;98657.09;5091980;27;123868;-85
2023/05/13 00:49:17;;;;;;;;;;;15.20;94.50;;;15.45;59.30;98659.47;5078668;27;109322;-85
2023/05/13 00:51:43;;;;;;;;;;;15.20;94.50;;;15.42;59.36;98660.97;5069407;27;109298;-85
2023/05/13 00:54:10;;;;;;;;;;;15.10;94.50;;;15.37;59.50;98663.97;5057228;27;124501;-85
2023/05/13 00:56:37;;;;;;;;;;;15.10;94.50;;;15.30;59.31;98658.16;5087987;27;123961;-86
2023/05/13 00:59:07;;;;;;;;;;;15.10;94.50;;;15.27;59.55;98656.06;5060498;27;109326;-87
2023/05/13 01:01:33;;;;;;;;;;;15.00;94.50;;;15.25;59.58;98661.19;5085497;27;108633;-87
2023/05/13 01:04:11;;;;;;;;;;;15.00;94.50;;;15.24;59.71;98654.81;5081097;27;123542;-83
2023/05/13 01:06:56;;;;;;;;;;;15.00;94.50;;;15.20;59.39;98658.63;5094138;27;123328;-84
2023/05/13 01:09:55;;;;;;;;;;;15.00;94.80;;;15.15;59.59;98661.63;5090215;27;109064;-87
2023/05/13 01:12:35;;;;;;;;;;;14.90;94.50;;;15.11;59.62;98660.72;5084593;27;108812;-87
2023/05/13 01:15:09;;;;;;;;;;;14.90;94.50;;;15.08;59.83;98667.78;5066316;27;123939;-87
2023/05/13 01:17:45;;;;;;;;;;;14.90;94.80;;;15.08;59.77;98661.41;5070935;27;124179;-86
2023/05/13 01:20:11;;;;;;;;;;;14.80;94.50;;;15.05;59.77;98659.31;5094897;27;110139;-86
2023/05/13 01:22:37;;;;;;;;;;;14.80;94.50;;;15.03;59.85;98665.22;5073217;27;109854;-85
2023/05/13 01:25:10;;;;;;;;;;;14.80;94.50;;;15.02;59.74;98666.38;5061353;27;124568;-86
2023/05/13 01:27:36;;;;;;;;;;;14.80;94.50;;;14.99;59.83;98659.53;5063176;27;123348;-86
2023/05/13 01:30:07;;;;;;;;;;;14.80;94.50;;;14.99;59.74;98667.03;5058999;27;109257;-86
2023/05/13 01:32:36;;;;;;;;;;;14.80;94.50;;;14.95;59.76;98672.50;5071700;27;108835;-86
2023/05/13 01:35:07;;;;;;;;;;;14.70;94.40;;;14.91;59.78;98673.53;5060785;27;124107;-85
2023/05/13 01:37:40;;;;;;;;;;;14.70;94.40;;;14.84;59.74;98668.53;5075545;27;122649;-86
2023/05/13 01:40:07;;;;;;;;;;;14.00;94.20;;;14.76;60.01;98669.44;5069013;27;109435;-86
2023/05/13 01:42:34;;;;;;;;;;;14.50;94.40;;;14.69;60.16;98672.78;5048110;27;107797;-87
2023/05/13 01:45:00;;;;;;;;;;;14.50;94.50;;;14.64;59.99;98664.66;5068208;27;123753;-87
2023/05/13 01:47:29;;;;;;;;;;;14.50;94.40;;;14.63;60.05;98665.81;5071387;27;123945;-87
2023/05/13 01:49:55;;;;;;;;;;;14.50;94.50;;;14.63;60.03;98670.56;5059153;27;109251;-86
2023/05/13 01:52:21;;;;;;;;;;;14.50;94.80;;;14.62;59.97;98675.31;5071208;27;109185;-87
2023/05/13 01:54:48;;;;;;;;;;;14.50;94.50;;;14.60;59.94;98676.81;5073774;27;124124;-87
2023/05/13 01:57:19;;;;;;;;;;;14.40;94.50;;;14.54;60.00;98671.47;5060828;27;123111;-87
2023/05/13 01:59:46;;;;;;;;;;;14.40;94.50;;;14.49;59.92;98679.16;5051895;27;109281;-87
2023/05/13 02:02:17;;;;;;;;;;;14.30;94.40;;;14.42;60.08;98685.25;5052956;27;108625;-86
2023/05/13 02:04:43;;;;;;;;;;;14.20;94.40;;;14.36;60.15;98681.06;5058129;27;123917;-84
2023/05/13 02:07:09;;;;;;;;;;;14.20;94.50;;;14.34;60.42;98678.63;5051349;27;124316;-86
2023/05/13 02:09:36;;;;;;;;;;;14.20;94.50;;;14.32;60.16;98688.50;5052124;27;111447;-87
2023/05/13 02:12:05;;;;;;;;;;;14.10;94.50;;;14.31;60.46;98676.53;5065265;27;109875;-85
2023/05/13 02:14:32;;;;;;;;;;;14.20;94.50;;;14.33;60.18;98682.56;5053112;27;123356;-88
2023/05/13 02:16:58;;;;;;;;;;;14.20;94.50;;;14.38;60.16;98689.09;5065061;27;123863;-88
2023/05/13 02:19:29;;;;;;;;;;;14.20;94.50;;;14.41;60.02;98689.22;5063763;27;109265;-88
2023/05/13 02:21:55;;;;;;;;;;;14.20;94.50;;;14.43;60.12;98681.34;5084746;27;108772;-88
2023/05/13 02:24:22;;;;;;;;;;;14.20;94.50;;;14.46;60.04;98685.41;5083575;27;124406;-88
2023/05/13 02:26:48;;;;;;;;;;;14.20;94.50;;;14.49;59.90;98684.72;5089270;27;124508;-88
2023/05/13 02:29:17;;;;;;;;;;;14.20;94.50;;;14.51;59.75;98693.56;5092130;27;109247;-88
2023/05/13 02:31:43;;;;;;;;;;;14.20;94.40;;;14.43;59.70;98684.13;5083716;27;108455;-88
2023/05/13 02:34:09;;;;;;;;;;;14.20;94.30;;;14.35;59.63;98690.59;5085967;27;124480;-88
2023/05/13 02:36:36;;;;;;;;;;;14.20;94.30;;;14.27;59.77;98689.50;5086599;27;123917;-88
2023/05/13 02:39:05;;;;;;;;;;;14.10;94.20;;;14.22;59.87;98691.66;5084567;27;108432;-88
2023/05/13 02:41:31;;;;;;;;;;;14.10;94.30;;;14.20;60.02;98696.75;5085996;27;108854;-87
2023/05/13 02:43:58;;;;;;;;;;;14.00;94.30;;;14.24;59.90;98692.13;5083183;27;124203;-88
2023/05/13 02:46:24;;;;;;;;;;;14.00;94.30;;;14.25;59.72;98691.78;5089342;27;123937;-88
2023/05/13 02:48:58;;;;;;;;;;;14.10;94.30;;;14.27;59.63;98695.06;5092318;27;109370;-88
2023/05/13 02:51:24;;;;;;;;;;;14.10;94.30;;;14.28;59.50;98693.09;5091273;27;108828;-88
2023/05/13 02:53:51;;;;;;;;;;;14.10;94.30;;;14.25;59.56;98689.00;5086817;27;124400;-88
2023/05/13 02:56:17;;;;;;;;;;;14.00;94.20;;;14.25;59.31;98685.44;5075754;27;123189;-88
2023/05/13 02:58:43;;;;;;;;;;;14.00;94.10;;;14.19;59.39;98689.56;5081942;27;110523;-87
2023/05/13 03:01:15;;;;;;;;;;;14.00;94.10;;;14.12;59.22;98688.13;5086654;27;109302;-88
2023/05/13 03:03:42;;;;;;;;;;;14.00;94.00;;;14.07;59.55;98691.09;5091512;27;124234;-87
2023/05/13 03:06:08;;;;;;;;;;;13.90;94.00;;;14.05;59.45;98687.88;5072704;27;124089;-87
2023/05/13 03:08:37;;;;;;;;;;;13.90;93.90;;;14.02;59.18;98685.75;5090976;27;109307;-86
2023/05/13 03:11:04;;;;;;;;;;;13.90;94.00;;;14.01;59.55;98692.47;5084657;27;108873;-87
2023/05/13 03:13:30;;;;;;;;;;;13.90;94.00;;;13.99;59.20;98686.44;5071583;27;124450;-87
2023/05/13 03:15:56;;;;;;;;;;;13.80;93.90;;;13.98;59.15;98690.38;5075114;27;123954;-87
2023/05/13 03:18:30;;;;;;;;;;;13.70;93.90;;;13.98;59.17;98687.59;5091031;27;109363;-87
2023/05/13 03:20:56;;;;;;;;;;;13.70;93.90;;;13.97;58.91;98697.09;5091039;27;108959;-88
2023/05/13 03:23:28;;;;;;;;;;;13.70;93.80;;;13.98;59.13;98692.34;5048989;27;123605;-87
2023/05/13 03:25:54;;;;;;;;;;;13.70;93.80;;;13.93;58.93;98691.38;5090279;27;124568;-87
2023/05/13 03:28:20;;;;;;;;;;;13.70;93.70;;;13.91;59.00;98692.88;5091132;27;109748;-87
2023/05/13 03:30:50;;;;;;;;;;;13.70;93.80;;;13.88;59.06;98688.00;5091169;27;108667;-87
2023/05/13 03:33:18;;;;;;;;;;;13.70;93.80;;;13.85;59.10;98697.00;5058788;27;124612;-87
2023/05/13 03:35:45;;;;;;;;;;;13.70;93.80;;;13.84;59.14;98698.16;5092500;27;124424;-87
2023/05/13 03:38:13;;;;;;;;;;;13.60;93.70;;;13.82;59.15;98692.94;5089855;27;109365;-87
2023/05/13 03:40:42;;;;;;;;;;;13.60;93.70;;;13.81;59.16;98694.09;5059362;27;108670;-88
2023/05/13 03:43:08;;;;;;;;;;;13.60;93.80;;;13.83;59.30;98696.50;5093613;27;124191;-87
2023/05/13 03:45:37;;;;;;;;;;;13.60;93.80;;;13.86;59.10;98701.38;5062241;27;123741;-87
2023/05/13 03:48:04;;;;;;;;;;;13.60;93.80;;;13.90;59.26;98705.94;5088095;27;110921;-87
2023/05/13 03:50:30;;;;;;;;;;;13.60;93.90;;;13.92;58.98;98695.31;5080553;27;109404;-86
2023/05/13 03:52:57;;;;;;;;;;;13.70;93.90;;;13.96;59.14;98703.78;5093154;27;123762;-87
2023/05/13 03:55:25;;;;;;;;;;;13.70;93.90;;;13.98;58.84;98700.69;5073192;27;124184;-87
2023/05/13 03:57:51;;;;;;;;;;;13.70;93.80;;;13.98;58.87;98706.22;5093807;27;109437;-87
2023/05/13 04:00:20;;;;;;;;;;;13.70;93.80;;;13.93;58.79;98701.69;5079170;27;108500;-86
2023/05/13 04:02:52;;;;;;;;;;;13.70;93.70;;;13.93;58.78;98701.69;5063686;27;124164;-86
2023/05/13 04:05:21;;;;;;;;;;;13.70;93.70;;;13.90;58.77;98707.91;5094798;27;123941;-88
2023/05/13 04:07:49;;;;;;;;;;;13.60;93.70;;;13.87;58.74;98711.38;5096976;27;109731;-84
2023/05/13 04:10:18;;;;;;;;;;;13.60;93.70;;;13.87;58.90;98711.38;5057071;27;107957;-87
2023/05/13 04:12:44;;;;;;;;;;;13.60;93.70;;;13.83;58.92;98713.16;5091746;27;124397;-87
2023/05/13 04:15:16;;;;;;;;;;;13.60;93.70;;;13.81;58.71;98712.69;5093807;27;123787;-87
2023/05/13 04:17:42;;;;;;;;;;;13.60;93.60;;;13.80;58.82;98714.66;5075432;27;109247;-86
2023/05/13 04:20:09;;;;;;;;;;;13.60;93.60;;;13.80;58.66;98716.63;5093381;27;108716;-85
2023/05/13 04:22:38;;;;;;;;;;;13.60;93.60;;;13.76;59.07;98719.28;5092552;27;124226;-86
2023/05/13 04:25:04;;;;;;;;;;;13.60;93.60;;;13.78;58.77;98727.25;5092829;27;123894;-86
2023/05/13 04:27:30;;;;;;;;;;;13.50;93.50;;;13.77;58.76;98725.63;5070442;27;109364;-88
2023/05/13 04:29:57;;;;;;;;;;;13.50;93.60;;;13.76;58.87;98719.28;5075923;27;108830;-89
2023/05/13 04:32:26;;;;;;;;;;;13.50;93.60;;;13.76;58.84;98732.34;5065846;27;124228;-88
2023/05/13 04:34:53;;;;;;;;;;;13.50;93.60;;;13.74;58.82;98731.88;5093152;27;123985;-88
2023/05/13 04:37:19;;;;;;;;;;;13.50;93.60;;;13.70;58.92;98726.97;5074737;27;110273;-87
2023/05/13 04:39:49;;;;;;;;;;;13.50;93.90;;;13.69;58.57;98730.09;5075188;27;109658;-87
2023/05/13 04:42:16;;;;;;;;;;;13.50;93.60;;;13.67;58.74;98730.44;5091007;27;123282;-87
2023/05/13 04:44:44;;;;;;;;;;;13.50;93.60;;;13.68;58.64;98740.38;5075374;27;123200;-87
2023/05/13 04:47:13;;;;;;;;;;;13.40;93.60;;;13.68;58.97;98734.03;5085903;27;109552;-87
2023/05/13 04:49:39;;;;;;;;;;;13.40;93.60;;;13.63;58.70;98737.78;5092889;27;108623;-86
2023/05/13 04:52:06;;;;;;;;;;;13.40;93.80;;;13.62;58.81;98740.88;5082463;27;124118;-86
2023/05/13 04:54:39;;;;;;;;;;;13.40;93.60;;;13.63;58.90;98743.34;5073487;27;124441;-86
2023/05/13 04:57:05;;;;;;;;;;;13.40;93.60;;;13.64;59.00;98747.72;5081667;27;109433;-87
2023/05/13 04:59:32;;;;;;;;;;;13.40;93.60;;;13.66;58.96;98748.22;5088599;27;108658;-87
2023/05/13 05:02:00;;;;;;;;;;;13.40;93.60;;;13.68;58.86;98751.47;5079379;27;124769;-86
2023/05/13 05:04:27;;;;;;;;;;;13.40;93.60;;;13.68;58.78;98751.47;5090480;27;124454;-86
2023/05/13 05:06:55;;;;;;;;;;;13.40;93.60;;;13.67;58.83;98755.41;5093482;27;109412;-86
2023/05/13 05:09:25;;;;;;;;;;;13.40;93.60;;;13.67;58.84;98754.59;5080943;27;108617;-88
2023/05/13 05:11:51;;;;;;;;;;;13.40;93.60;;;13.62;58.98;98752.00;5066363;27;124782;-87
2023/05/13 05:14:17;;;;;;;;;;;13.40;93.60;;;13.62;58.94;98763.94;5090369;27;123915;-87
2023/05/13 05:16:47;;;;;;;;;;;13.40;93.60;;;13.64;58.83;98760.81;5065927;27;108422;-87
2023/05/13 05:19:14;;;;;;;;;;;13.40;93.60;;;13.67;58.99;98760.97;5088736;27;108502;-86
2023/05/13 05:21:40;;;;;;;;;;;13.50;93.60;;;13.68;58.61;98762.59;5077307;27;124439;-85
2023/05/13 05:24:06;;;;;;;;;;;13.40;93.50;;;13.67;58.61;98760.97;5066199;27;124636;-87
2023/05/13 05:26:33;;;;;;;;;;;13.40;93.50;;;13.68;58.81;98768.16;5092702;27;110368;-85
2023/05/13 05:29:00;;;;;;;;;;;13.40;93.50;;;13.73;58.68;98760.75;5072436;27;110098;-87
2023/05/13 05:31:26;;;;;;;;;;;13.50;93.60;;;13.75;58.54;98766.78;5064569;27;123172;-86
2023/05/13 05:33:52;;;;;;;;;;;13.50;93.50;;;13.77;58.49;98764.50;5079808;27;123102;-87
2023/05/13 05:36:19;;;;;;;;;;;13.50;93.50;;;13.77;58.61;98775.63;5093095;27;109427;-88
2023/05/13 05:38:48;;;;;;;;;;;13.50;93.50;;;13.72;58.34;98779.38;5092424;27;108811;-88
2023/05/13 05:41:14;;;;;;;;;;;13.50;93.40;;;13.72;58.51;98771.06;5061710;27;123849;-87
2023/05/13 05:43:41;;;;;;;;;;;13.50;93.40;;;13.77;58.43;98775.63;5068281;27;122915;-82
2023/05/13 05:46:08;;;;;;;;;;;13.50;93.40;;;13.82;58.56;98783.75;5076078;27;109544;-90
2023/05/13 05:48:36;;;;;;;;;;;13.50;93.40;;;13.85;58.35;98780.31;5075175;27;107822;-88
2023/05/13 05:51:03;;;;;;;;;;;13.60;93.50;;;13.87;58.32;98783.56;5089823;27;124041;-87
2023/05/13 05:53:30;;;;;;;;;;;13.60;93.50;;;13.89;58.14;98786.84;5084993;27;123612;-88
2023/05/13 05:56:00;;;;;;;;;;;13.60;93.40;;;13.90;58.02;98794.00;5087173;27;110182;-87
2023/05/13 05:58:29;;;;;;;;;;;13.60;93.40;;;13.89;58.13;98795.97;5080123;27;108747;-88
2023/05/13 06:00:57;;;;;;;;;;;13.60;93.40;;;13.89;57.89;98795.97;5092115;27;124809;-82
2023/05/13 06:03:25;;;;;;;;;;;13.60;93.40;;;13.89;58.22;98795.16;5069946;27;123676;-84
2023/05/13 06:05:52;;;;;;;;;;;13.60;93.40;;;13.91;58.08;98792.84;5079325;27;108405;-82
2023/05/13 06:08:18;;;;;;;;;;;13.60;93.30;;;13.89;57.87;98779.31;5062567;27;109111;-84
2023/05/13 06:10:48;;;;;;;;;;;13.60;93.30;;;13.89;58.03;98789.63;5088303;27;124305;-84
2023/05/13 06:13:15;;;;;;;;;;;13.60;93.20;;;13.88;58.14;98793.53;5088340;27;123743;-85
2023/05/13 06:15:43;;;;;;;;;;;13.60;93.30;;;13.89;57.97;98784.06;5087678;27;110697;-83
2023/05/13 06:18:15;;;;;;;;;;;13.60;93.30;;;13.87;57.98;98792.72;5081975;27;109881;-85
2023/05/13 06:20:43;;;;;;;;;;;13.60;93.20;;;13.87;58.25;98797.47;5087057;27;124064;-85
2023/05/13 06:23:16;;;;;;;;;;;13.60;93.20;;;13.87;58.13;98791.91;5093654;27;123623;-85
2023/05/13 06:25:42;;;;;;;;;;;13.60;93.30;;;13.90;58.12;98791.22;5078895;27;108324;-84
2023/05/13 06:28:15;;;;;;;;;;;13.70;93.40;;;13.96;58.12;98791.84;5090788;27;108917;-85
2023/05/13 06:30:42;;;;;;;;;;;13.70;93.40;;;14.00;58.24;98796.41;5085512;27;124124;-83
2023/05/13 06:33:10;;;;;;;;;;;13.70;93.40;;;14.01;57.94;98795.25;5073177;27;122873;-84
2023/05/13 06:35:39;;;;;;;;;;;13.70;93.50;;;14.01;58.05;98792.47;5086984;27;108860;-85
2023/05/13 06:38:05;;;;;;;;;;;13.70;93.40;;;14.02;58.12;98798.84;5065227;27;108385;-83
2023/05/13 06:40:32;;;;;;;;;;;13.70;93.40;;;14.02;58.33;98796.88;5092892;27;124226;-86
2023/05/13 06:43:01;;;;;;;;;;;13.70;93.40;;;14.01;58.15;98798.03;5072556;27;123893;-85
2023/05/13 06:45:27;;;;;;;;;;;13.70;93.50;;;14.01;58.15;98792.47;5091158;27;109295;-84
2023/05/13 06:47:54;;;;;;;;;;;13.70;93.40;;;14.04;58.02;98791.81;5080784;27;107657;-84
2023/05/13 06:50:20;;;;;;;;;;;13.80;93.50;;;14.09;58.31;98797.16;5091360;27;124182;-85
2023/05/13 06:52:49;;;;;;;;;;;13.70;93.40;;;14.16;58.13;98793.88;5069358;27;123936;-85
2023/05/13 06:55:17;;;;;;;;;;;13.80;93.50;;;14.18;57.75;98790.75;5082252;27;109254;-85
2023/05/13 06:57:49;;;;;;;;;;;13.80;93.40;;;14.18;57.76;98797.09;5091965;27;108782;-83
2023/05/13 07:00:16;;;;;;;;;;;13.80;93.40;;;14.19;57.88;98793.19;5083242;27;124140;-85
2023/05/13 07:02:42;;;;;;;;;;;13.80;93.40;;;14.23;58.00;98790.53;5056396;27;124009;-84
2023/05/13 07:05:15;;;;;;;;;;;13.80;93.40;;;14.28;57.71;98802.28;5074019;27;110309;-83
2023/05/13 07:07:42;;;;;;;;;;;13.90;93.50;;;14.30;57.54;98801.94;5064339;27;109779;-83
2023/05/13 07:10:08;;;;;;;;;;;13.90;93.30;;;14.31;57.58;98809.94;5074822;27;124259;-82
2023/05/13 07:12:37;;;;;;;;;;;13.90;93.30;;;14.28;57.46;98801.47;5070673;27;123421;-83
2023/05/13 07:15:07;;;;;;;;;;;13.90;93.20;;;14.25;57.55;98804.94;5050631;27;108336;-84
2023/05/13 07:17:33;;;;;;;;;;;13.90;93.20;;;14.25;57.59;98799.38;5078113;27;108729;-85
2023/05/13 07:20:02;;;;;;;;;;;13.50;93.10;;;14.27;57.54;98800.66;5077582;27;124605;-85
2023/05/13 07:22:28;;;;;;;;;;;13.90;93.20;;;14.31;57.56;98803.56;5047329;27;122716;-85
2023/05/13 07:24:55;;;;;;;;;;;14.00;93.60;;;14.34;57.33;98811.22;5084747;27;109520;-82
2023/05/13 07:27:28;;;;;;;;;;;14.00;93.20;;;14.32;56.88;98813.56;5058047;27;109395;-85
2023/05/13 07:29:54;;;;;;;;;;;14.00;93.00;;;14.31;57.16;98814.69;5089090;27;123974;-85
2023/05/13 07:32:26;;;;;;;;;;;14.00;93.00;;;14.31;57.29;98811.91;5090063;27;123993;-84
2023/05/13 07:34:52;;;;;;;;;;;14.00;93.00;;;14.29;57.13;98816.97;5075803;27;109503;-84
2023/05/13 07:37:18;;;;;;;;;;;14.00;93.10;;;14.27;57.47;98810.97;5075079;27;109281;-84
2023/05/13 07:39:44;;;;;;;;;;;14.00;93.20;;;14.31;57.56;98800.78;5046730;27;123952;-84
2023/05/13 07:42:14;;;;;;;;;;;14.00;93.20;;;14.34;57.38;98805.66;5079425;27;123902;-84
2023/05/13 07:44:40;;;;;;;;;;;14.00;93.20;;;14.37;57.44;98805.00;5090460;27;109349;-84
2023/05/13 07:47:06;;;;;;;;;;;14.00;93.20;;;14.41;57.37;98805.97;5059685;27;108456;-82
2023/05/13 07:49:32;;;;;;;;;;;14.00;93.20;;;14.44;57.37;98799.72;5065763;27;124156;-84
2023/05/13 07:52:05;;;;;;;;;;;14.00;93.20;;;14.45;57.20;98812.47;5076143;27;124275;-85
2023/05/13 07:54:31;;;;;;;;;;;14.00;93.20;;;14.46;57.16;98816.06;5058549;27;110296;-82
2023/05/13 07:57:05;;;;;;;;;;;14.00;93.10;;;14.44;57.09;98804.47;5068075;27;109138;-85
2023/05/13 07:59:32;;;;;;;;;;;14.10;93.10;;;14.41;57.06;98805.16;5089336;27;122793;-84
2023/05/13 08:02:03;;;;;;;;;;;14.10;93.10;;;14.40;57.38;98809.06;5068302;27;123235;-83
2023/05/13 08:04:32;;;;;;;;;;;14.10;93.10;;;14.41;57.20;98814.28;5064345;27;108628;-85
2023/05/13 08:07:00;;;;;;;;;;;14.10;93.00;;;14.40;57.02;98809.91;5088890;27;110033;-91
2023/05/13 08:09:29;;;;;;;;;;;14.10;92.90;;;14.43;56.95;98809.22;5076736;27;124307;-84
2023/05/13 08:11:55;;;;;;;;;;;14.10;93.00;;;14.47;57.19;98809.34;5068595;27;123425;-84
2023/05/13 08:14:24;;;;;;;;;;;14.40;93.10;;;14.50;56.97;98815.03;5094649;27;109365;-84
2023/05/13 08:16:51;;;;;;;;;;;14.10;93.00;;;14.56;57.16;98810.97;5076103;27;108754;-85
2023/05/13 08:19:18;;;;;;;;;;;14.20;93.10;;;14.62;57.13;98816.31;5090177;27;124820;-86
2023/05/13 08:21:47;;;;;;;;;;;14.20;93.10;;;14.68;56.99;98814.97;5072979;27;122886;-83
2023/05/13 08:24:13;;;;;;;;;;;14.20;93.10;;;14.73;56.82;98823.09;5084169;27;109294;-82
2023/05/13 08:26:39;;;;;;;;;;;14.30;93.10;;;14.74;56.80;98819.16;5081526;27;109262;-83
2023/05/13 08:29:06;;;;;;;;;;;14.30;93.00;;;14.76;56.75;98823.22;5063562;27;123650;-83
2023/05/13 08:31:35;;;;;;;;;;;14.40;93.00;;;14.82;56.71;98820.25;5068896;27;123982;-83
2023/05/13 08:34:01;;;;;;;;;;;14.40;93.00;;;14.84;56.86;98818.75;5079552;27;109630;-81
2023/05/13 08:36:28;;;;;;;;;;;14.50;93.00;;;14.88;56.65;98816.91;5079024;27;109438;-88
2023/05/13 08:38:54;;;;;;;;;;;14.50;93.00;;;14.94;56.84;98823.91;5074484;27;124078;-84
2023/05/13 08:41:23;;;;;;;;;;;14.50;93.00;;;15.02;56.61;98822.19;5075023;27;123743;-83
2023/05/13 08:43:54;;;;;;;;;;;14.60;93.00;;;15.09;56.76;98832.75;5093387;27;110607;-82
2023/05/13 08:46:28;;;;;;;;;;;14.70;93.00;;;15.15;56.21;98828.59;5056826;27;108753;-85
2023/05/13 08:48:54;;;;;;;;;;;14.70;92.80;;;15.11;56.01;98827.69;5041183;27;123394;-84
2023/05/13 08:51:23;;;;;;;;;;;14.70;92.70;;;15.07;56.03;98832.28;5068269;27;124099;-84
2023/05/13 08:53:51;;;;;;;;;;;14.70;92.70;;;15.07;56.12;98835.06;5075248;27;109869;-84
2023/05/13 08:56:18;;;;;;;;;;;14.70;92.70;;;15.00;55.93;98825.31;5066109;27;108312;-84
2023/05/13 08:58:47;;;;;;;;;;;14.70;92.60;;;14.97;56.20;98837.13;5074571;27;125853;-83
2023/05/13 09:01:15;;;;;;;;;;;14.60;92.60;;;14.96;56.43;98832.72;5071582;27;123292;-84
2023/05/13 09:03:55;;;;;;;;;;;13.20;92.00;;;14.96;56.16;98837.44;5068322;27;109325;-85
2023/05/13 09:06:24;;;;;;;;;;;14.60;92.70;;;14.89;56.45;98831.63;5078374;27;108467;-84
2023/05/13 09:08:50;;;;;;;;;;;14.60;92.70;;;14.87;56.33;98837.53;5091607;27;124135;-85
2023/05/13 09:11:17;;;;;;;;;;;14.60;92.70;;;14.87;56.67;98840.31;5066113;27;124304;-84
2023/05/13 09:13:43;;;;;;;;;;;14.50;92.80;;;14.88;56.55;98828.03;5092804;27;109399;-83
2023/05/13 09:16:12;;;;;;;;;;;14.50;92.80;;;14.90;56.60;98831.28;5087325;27;108714;-83
2023/05/13 09:18:40;;;;;;;;;;;14.50;92.90;;;14.96;56.77;98832.72;5073185;27;125102;-83
2023/05/13 09:21:27;;;;;;;;;;;14.60;92.90;;;15.03;56.65;98832.16;5083688;27;124263;-82
2023/05/13 09:24:25;;;;;;;;;;;14.60;92.90;;;15.10;56.85;98834.38;5072396;27;109703;-84
2023/05/13 09:26:52;;;;;;;;;;;14.70;93.00;;;15.18;56.38;98839.06;5090932;27;109159;-84
2023/05/13 09:29:27;;;;;;;;;;;14.80;93.00;;;15.26;56.21;98838.19;5076115;27;124416;-83
2023/05/13 09:31:56;;;;;;;;;;;14.80;92.90;;;15.30;55.89;98821.59;5068223;27;124010;-84
2023/05/13 09:34:31;;;;;;;;;;;14.90;92.80;;;15.31;55.86;98826.78;5075836;27;109740;-82
2023/05/13 09:37:05;;;;;;;;;;;14.90;92.60;;;15.34;55.86;98834.50;5082354;27;109631;-83
2023/05/13 09:39:36;;;;;;;;;;;15.00;92.70;;;15.38;55.77;98835.41;5070884;27;123488;-82
2023/05/13 09:42:06;;;;;;;;;;;15.00;92.60;;;15.42;55.76;98832.75;5050130;27;123135;-84
2023/05/13 09:44:38;;;;;;;;;;;15.10;92.50;;;15.42;55.60;98835.53;5062215;27;108704;-82
2023/05/13 09:47:07;;;;;;;;;;;15.00;92.50;;;15.41;55.53;98840.28;5085512;27;108961;-84
2023/05/13 09:49:43;;;;;;;;;;;15.00;92.50;;;15.39;55.59;98839.84;5090417;27;124106;-83
2023/05/13 09:52:18;;;;;;;;;;;13.50;91.80;;;15.40;55.58;98840.66;5085885;27;123070;-84
2023/05/13 09:54:51;;;;;;;;;;;15.00;92.60;;;15.48;55.59;98836.16;5083405;27;109089;-83
2023/05/13 09:57:20;;;;;;;;;;;15.10;92.70;;;15.57;55.67;98834.06;5087704;27;109020;-85
2023/05/13 09:59:47;;;;;;;;;;;15.10;92.70;;;15.64;55.75;98823.19;5063586;27;123088;-85
2023/05/13 10:02:14;;;;;;;;;;;15.20;92.60;;;15.68;55.33;98832.47;5083895;27;124200;-83
2023/05/13 10:04:41;;;;;;;;;;;15.20;92.40;;;15.68;55.40;98835.25;5071315;27;108369;-85
2023/05/13 10:07:10;;;;;;;;;;;15.30;92.70;;;15.72;55.10;98838.22;5076475;27;108500;-84
2023/05/13 10:09:36;;;;;;;;;;;15.30;92.30;;;15.75;55.00;98840.28;5085516;27;124741;-83
2023/05/13 10:12:14;;;;;;;;;;;15.30;92.40;;;15.77;55.15;98838.78;5069072;27;124264;-84
2023/05/13 10:14:47;;;;;;;;;;;15.30;92.40;;;15.77;55.23;98837.97;5090113;27;109638;-84
2023/05/13 10:17:17;;;;;;;;;;;15.40;92.40;;;15.76;55.15;98842.72;5083604;27;107317;-83
2023/05/13 10:20:03;;;;;;;;;;;15.40;92.70;;;15.78;55.35;98851.56;5060327;27;124216;-85
2023/05/13 10:22:33;;;;;;;;;;;15.40;92.40;;;15.82;55.01;98841.31;5082234;27;124266;-83
2023/05/13 10:25:01;;;;;;;;;;;15.40;92.40;;;15.88;55.06;98839.97;5072077;27;110348;-84
2023/05/13 10:27:35;;;;;;;;;;;15.50;92.40;;;15.94;54.83;98837.75;5081255;27;109677;-82
2023/05/13 10:30:04;;;;;;;;;;;15.50;92.30;;;15.96;54.86;98829.88;5065403;27;124577;-84
2023/05/13 10:32:33;;;;;;;;;;;15.50;92.30;;;15.98;54.82;98835.88;5059367;27;123953;-85
2023/05/13 10:35:12;;;;;;;;;;;15.50;92.20;;;16.01;54.65;98843.56;5077519;27;108518;-84
2023/05/13 10:37:47;;;;;;;;;;;15.50;92.20;;;16.03;54.53;98837.63;5059176;27;108562;-84
2023/05/13 10:40:24;;;;;;;;;;;15.60;92.20;;;16.02;54.42;98822.09;5081794;27;124095;-81
2023/05/13 10:43:24;;;;;;;;;;;15.50;92.00;;;16.01;54.29;98834.38;5092244;27;124274;-84
2023/05/13 10:45:58;;;;;;;;;;;15.60;92.00;;;15.99;54.69;98843.09;5088937;27;109301;-85
2023/05/13 10:48:27;;;;;;;;;;;15.60;92.20;;;15.97;55.16;98837.06;5090931;27;109422;-85
2023/05/13 10:51:06;;;;;;;;;;;15.60;92.20;;;15.93;55.13;98838.09;5089161;27;124175;-84
2023/05/13 10:53:49;;;;;;;;;;;15.60;92.30;;;15.94;55.29;98839.75;5093520;27;123617;-85
2023/05/13 10:56:23;;;;;;;;;;;15.60;92.30;;;15.90;55.42;98837.66;5089416;27;109040;-81
2023/05/13 10:58:58;;;;;;;;;;;15.60;92.20;;;15.89;55.47;98835.19;5086311;27;109068;-86
2023/05/13 11:01:46;;;;;;;;;;;15.60;92.30;;;15.91;55.50;98844.03;5071434;27;123944;-81
2023/05/13 11:04:14;;;;;;;;;;;15.60;92.30;;;15.94;55.04;98842.53;5069755;27;124261;-83
2023/05/13 11:06:48;;;;;;;;;;;15.60;92.30;;;15.98;55.32;98849.00;5085781;27;109968;-82
2023/05/13 11:09:27;;;;;;;;;;;15.70;92.30;;;16.01;55.11;98845.53;5073729;27;108600;-82
2023/05/13 11:12:02;;;;;;;;;;;15.70;92.20;;;16.06;54.70;98843.31;5048802;27;123355;-81
2023/05/13 11:14:34;;;;;;;;;;;15.70;92.10;;;16.08;54.87;98837.41;5034075;27;124520;-83
2023/05/13 11:17:00;;;;;;;;;;;15.80;92.10;;;16.12;54.81;98835.56;5029365;27;110547;-84